Terminal Aerodrome Forecast
Issued by NWS

Home | Current Version | Previous Version | Text Only | Print | Product List | Glossary On
Versions: 1 2 3 4 5 6 7 8 9 10 11 12 13 14 15 16 17 18 19 20 21 22
108
FTUS46 KLOX 141739
TAFLGB
TAF
KLGB 141739Z 1418/1518 VRB03KT 1SM BR SCT002
     FM142100 20006KT 6SM HZ SCT250
     FM142300 29008KT P6SM SCT250
     FM150300 VRB03KT 2SM BR SCT250
     FM150600 03004KT 3/4SM BR OVC001
     FM151200 VRB03KT 1/2SM FG VV001
     FM151700 35005KT 1SM BR BKN001=

USA.gov is the U.S. government's official web portal to all federal, state and local government web resources and services.